Terminal Aerodrome Forecast
Issued by NWS

Home | Current Version | Previous Version | Text Only | Print | Product List | Glossary On
Versions: 1 2 3 4 5 6 7 8 9 10 11 12 13 14 15
000
FTUS45 KTFX 260151 AAA
TAFHLN
TAF AMD
KHLN 260151Z 2602/2624 24006KT P6SM VCSH SCT060 BKN150
     FM260400 26006KT P6SM VCSH SCT035 OVC050
      TEMPO 2605/2609 5SM -SHRA OVC030
     FM261600 30006KT P6SM SCT060 BKN100
     FM261900 33006KT P6SM SCT100 SCT180=

USA.gov is the U.S. government's official web portal to all federal, state and local government web resources and services.